Weather at Scholes International At Galveston Airport

Public forecast

Using degrees Fahrenheit for public forecast. Weather courtesy of forecast.io.

Current aviation weather report (METAR) for Scholes International At Galveston Airport

Retrieved 2021/01/18 15:52 UTC (52 minutes ago):

KGLS 181552Z 12009KT 10SM FEW039 17/12 A3014 RMK AO2 SLP207 T01720117

Aviation forecast (TAF) for Scholes International At Galveston Airport

Retrieved 2021/01/18 12:40 UTC (4 hours ago):

TAF KGLS 181138Z 1812/1912 VRB04KT P6SM FEW250 FM181500 12008KT P6SM FEW035 FM181800 14013G23KT P6SM OVC050 FM190300 15013KT P6SM SCT025 OVC050 FM190700 15010KT P6SM VCSH OVC025